»·PEaware :: AAL1078 KLAX-KLAS

AAL1078 :: KLAX-KLAS

FLIGHT INFORMATION

Flight Status: Arrived
Operator:
American Airlines
More flights by this operator :: More flights under this callsign
Pilot: Alex M. (18860)
Aircraft: BOEING 737-800
(B738)
More flights by this aircraft type
Origin: KLAX Los Angeles Intl
United States
Destination: KLAS McCarran Intl
United States
More flights between these airports :: More routes between these airports
Route: +ORCKA3 MISEN CLARR3
File this flight plan on PilotEdge
Remarks: / L
Altitude:
(Current/Filed)
35,000ft
Speed:
(Current/Filed)
469kts
Departed: 26-Jul-18 12:24 PM
Arrived: 26-Jul-18 01:18 PM
Distance/Time
Traveled:
205nm/0:54
Distance/Time
To Go:
Arrived

Flight Plot

Page will automatically refresh every two minutes.

Flight plan parsing failed; only flown route is shown


Map Options




Map Legend


Flown Route
Filed Route
Departure Airport
Arrival Airport
Navaid (VOR, NDB)
Fix

Horizontal Profiles

Position Reports

Time Latitude Longitude Heading Altitude Ground
Speed
26-Jul-18 11:52 33.940737 -118.406124 250 122ft 0kts
26-Jul-18 11:53 33.940737 -118.406124 250 122ft 0kts
26-Jul-18 11:54 33.940737 -118.406124 250 122ft 0kts
26-Jul-18 11:55 33.940737 -118.406124 250 122ft 0kts
26-Jul-18 11:56 33.940737 -118.406124 250 122ft 0kts
26-Jul-18 11:57 33.940737 -118.406124 250 122ft 0kts
26-Jul-18 11:58 33.940737 -118.406124 250 122ft 0kts
26-Jul-18 11:59 33.940737 -118.406124 250 122ft 0kts
26-Jul-18 12:00 33.940737 -118.406124 250 122ft 0kts
26-Jul-18 12:01 33.940737 -118.406124 250 122ft 0kts
26-Jul-18 12:02 33.940737 -118.406124 250 122ft 0kts
26-Jul-18 12:03 33.940737 -118.406124 250 122ft 0kts
26-Jul-18 12:04 33.940737 -118.406124 250 122ft 0kts
26-Jul-18 12:05 33.940737 -118.406124 250 122ft 0kts
26-Jul-18 12:06 33.940737 -118.406124 250 122ft 0kts
26-Jul-18 12:07 33.940737 -118.406124 250 122ft 0kts
26-Jul-18 12:08 33.940737 -118.406124 250 122ft 0kts
26-Jul-18 12:09 33.940737 -118.406124 250 122ft 0kts
26-Jul-18 12:10 33.940737 -118.406123 250 122ft 0kts
26-Jul-18 12:11 33.940916 -118.405624 195 122ft 1kts
26-Jul-18 12:12 33.941196 -118.405648 172 121ft 0kts
26-Jul-18 12:13 33.941196 -118.405648 172 121ft 0kts
26-Jul-18 12:14 33.941132 -118.405638 172 121ft 0kts
26-Jul-18 12:15 33.940430 -118.405539 174 122ft 0kts
26-Jul-18 12:16 33.940430 -118.405539 174 122ft 0kts
26-Jul-18 12:17 33.939271 -118.405374 173 122ft 11kts
26-Jul-18 12:18 33.938381 -118.403815 82 120ft 11kts
26-Jul-18 12:19 33.938958 -118.398244 83 112ft 22kts
26-Jul-18 12:20 33.939814 -118.389870 83 103ft 29kts
26-Jul-18 12:21 33.940423 -118.383870 90 100ft 1kts
26-Jul-18 12:22 33.940392 -118.383604 114 100ft 0kts
26-Jul-18 12:23 33.940392 -118.383604 114 100ft 0kts
26-Jul-18 12:24 33.939404 -118.384382 262 102ft 20kts
26-Jul-18 12:25 33.936356 -118.420798 262 718ft 172kts
26-Jul-18 12:26 33.926360 -118.485564 251 2915ft 230kts
26-Jul-18 12:27 33.901127 -118.561584 249 4906ft 263kts
26-Jul-18 12:28 33.872867 -118.643232 247 8117ft 272kts
26-Jul-18 12:29 33.844987 -118.724907 239 10752ft 288kts
26-Jul-18 12:30 33.781139 -118.724088 119 13200ft 303kts
26-Jul-18 12:31 33.807057 -118.628084 53 14974ft 347kts
26-Jul-18 12:32 33.865551 -118.537668 52 17340ft 359kts
26-Jul-18 12:33 33.926197 -118.443887 52 19009ft 370kts
26-Jul-18 12:34 33.982618 -118.346655 56 19095ft 375kts
26-Jul-18 12:35 34.037538 -118.249550 56 21128ft 382kts
26-Jul-18 12:36 34.097595 -118.143250 56 22908ft 395kts
26-Jul-18 12:37 34.157529 -118.036900 57 24526ft 405kts
26-Jul-18 12:38 34.221208 -117.923556 57 26012ft 417kts
26-Jul-18 12:39 34.286082 -117.807712 56 27453ft 425kts
26-Jul-18 12:40 34.352059 -117.689644 57 28663ft 437kts
26-Jul-18 12:41 34.423313 -117.569767 56 30004ft 443kts
26-Jul-18 12:42 34.494149 -117.450763 56 31357ft 444kts
26-Jul-18 12:43 34.564786 -117.331651 56 32605ft 444kts
26-Jul-18 12:44 34.636411 -117.210610 57 33705ft 444kts
26-Jul-18 12:45 34.708030 -117.089124 57 34766ft 442kts
26-Jul-18 12:46 34.779962 -116.966655 57 35146ft 453kts
26-Jul-18 12:47 34.841171 -116.862098 57 35325ft 461kts
26-Jul-18 12:48 34.915233 -116.735100 57 35628ft 468kts
26-Jul-18 12:49 34.989215 -116.604701 57 35362ft 478kts
26-Jul-18 12:50 35.064180 -116.471425 57 35055ft 482kts
26-Jul-18 12:51 35.157300 -116.332517 47 33956ft 488kts
26-Jul-18 12:52 35.251302 -116.215445 47 31351ft 480kts
26-Jul-18 12:53 35.327052 -116.120454 47 29197ft 465kts
26-Jul-18 12:54 35.414091 -116.010903 46 26591ft 441kts
26-Jul-18 12:55 35.496540 -115.906563 46 23986ft 417kts
26-Jul-18 12:56 35.574993 -115.807064 46 21405ft 401kts
26-Jul-18 12:57 35.649816 -115.711932 46 18828ft 386kts
26-Jul-18 12:58 35.722298 -115.619511 46 16238ft 372kts
26-Jul-18 12:59 35.814423 -115.578430 1 13680ft 360kts
26-Jul-18 13:00 35.913072 -115.577107 359 12997ft 356kts
26-Jul-18 13:01 36.006857 -115.558212 45 12247ft 349kts
26-Jul-18 13:02 36.033616 -115.454966 92 11356ft 307kts
26-Jul-18 13:03 36.027956 -115.351348 94 10994ft 302kts
26-Jul-18 13:04 36.021543 -115.251074 95 10120ft 300kts
26-Jul-18 13:05 36.014937 -115.151827 95 9133ft 297kts
26-Jul-18 13:06 36.008164 -115.051631 94 8124ft 291kts
26-Jul-18 13:07 36.001710 -114.957598 94 7955ft 257kts
26-Jul-18 13:08 35.996735 -114.870289 81 7954ft 257kts
26-Jul-18 13:09 36.032605 -114.795721 54 7939ft 255kts
26-Jul-18 13:10 36.076237 -114.726526 24 7947ft 257kts
26-Jul-18 13:11 36.112924 -114.766958 235 7928ft 201kts
26-Jul-18 13:12 36.083824 -114.819277 237 6891ft 180kts
26-Jul-18 13:13 36.074034 -114.875985 269 6052ft 172kts
26-Jul-18 13:14 36.073773 -114.934220 269 5161ft 171kts
26-Jul-18 13:15 36.073768 -114.992145 269 4228ft 168kts
26-Jul-18 13:16 36.073814 -115.047631 269 3336ft 166kts
26-Jul-18 13:17 36.073748 -115.103048 269 2469ft 165kts
26-Jul-18 13:18 36.073649 -115.152697 269 2130ft 86kts
26-Jul-18 13:19 36.074671 -115.161268 0 2162ft 0kts
26-Jul-18 13:20 36.074671 -115.161268 0 2162ft 0kts
26-Jul-18 13:21 36.077288 -115.161292 359 2155ft 12kts
26-Jul-18 13:22 36.078028 -115.160256 90 2149ft 4kts
26-Jul-18 13:23 36.078037 -115.157145 90 2139ft 14kts
26-Jul-18 13:24 36.079740 -115.153885 334 2123ft 18kts
26-Jul-18 13:25 36.081961 -115.153173 72 2115ft 3kts
26-Jul-18 13:26 36.082343 -115.152936 2 2113ft 0kts
26-Jul-18 13:27 36.082343 -115.152936 2 2113ft 0kts

Navigation Log

Ident Type
Flight plan parsing failed, navigation log unavailable